Time;durP1;ratioP1;P1;durP2;ratioP2;P2;SDS_P1;SDS_P2;PMS_P1;PMS_P2;Temp;Humidity;BMP_temperature;BMP_pressure;BME280_temperature;BME280_humidity;BME280_pressure;Samples;Min_cycle;Max_cycle;Signal;HPM_P1;HPM_P2
2024/03/25 00:00:45;;;;;;;23.08;6.57;;;4.50;99.90;;;;;;4957759;28;20042;-72
2024/03/25 00:03:11;;;;;;;23.45;5.75;;;4.50;99.90;;;;;;4952165;28;20046;-72
2024/03/25 00:05:37;;;;;;;27.85;6.47;;;4.50;99.90;;;;;;4951247;28;20057;-71
2024/03/25 00:08:04;;;;;;;22.20;5.28;;;4.40;99.90;;;;;;4968627;28;20042;-70
2024/03/25 00:10:30;;;;;;;28.75;7.80;;;4.40;99.90;;;;;;4948849;28;24164;-71
2024/03/25 00:12:56;;;;;;;17.23;4.28;;;4.50;99.90;;;;;;4955062;28;20559;-71
2024/03/25 00:15:25;;;;;;;25.63;5.22;;;4.40;99.90;;;;;;4954107;28;20095;-72
2024/03/25 00:17:51;;;;;;;21.77;4.90;;;4.40;99.90;;;;;;4956746;28;20039;-71
2024/03/25 00:20:18;;;;;;;18.80;5.25;;;4.40;99.90;;;;;;4957957;28;20077;-74
2024/03/25 00:22:44;;;;;;;20.80;5.40;;;4.40;99.90;;;;;;4953543;28;20046;-71
2024/03/25 00:25:11;;;;;;;22.73;5.55;;;4.40;99.90;;;;;;4956212;28;20056;-71
2024/03/25 00:27:37;;;;;;;24.60;5.20;;;4.40;99.90;;;;;;4957768;28;20130;-71
2024/03/25 00:30:04;;;;;;;14.02;4.45;;;4.40;99.90;;;;;;4958412;28;20197;-72
2024/03/25 00:32:31;;;;;;;22.48;5.75;;;4.40;99.90;;;;;;4948471;28;20053;-69
2024/03/25 00:34:57;;;;;;;18.73;6.35;;;4.40;99.90;;;;;;4974810;28;20038;-71
2024/03/25 00:37:24;;;;;;;22.80;6.03;;;4.40;99.90;;;;;;4938431;28;20046;-71
2024/03/25 00:39:50;;;;;;;20.90;5.47;;;4.40;99.90;;;;;;4956905;28;20062;-71
2024/03/25 00:42:16;;;;;;;19.15;6.00;;;4.40;99.90;;;;;;4957158;28;20046;-70
2024/03/25 00:44:42;;;;;;;26.55;6.35;;;4.40;99.90;;;;;;4952096;28;20062;-70
2024/03/25 00:47:08;;;;;;;25.67;6.18;;;4.50;99.90;;;;;;4953127;28;20034;-71
2024/03/25 00:49:35;;;;;;;22.67;6.30;;;4.40;99.90;;;;;;4951446;28;20430;-71
2024/03/25 00:52:01;;;;;;;34.92;7.80;;;4.50;99.90;;;;;;4971839;28;20523;-70
2024/03/25 00:54:28;;;;;;;29.52;8.90;;;4.40;99.90;;;;;;4975613;28;20051;-71
2024/03/25 00:56:54;;;;;;;25.80;7.50;;;4.50;99.90;;;;;;4957364;28;20031;-70
2024/03/25 00:59:20;;;;;;;27.35;8.75;;;4.50;99.90;;;;;;4973486;28;20047;-72
2024/03/25 01:01:47;;;;;;;24.42;7.53;;;4.50;99.90;;;;;;4951192;28;20053;-71
2024/03/25 01:04:13;;;;;;;29.85;7.05;;;4.50;99.90;;;;;;4966541;28;20161;-72
2024/03/25 01:06:39;;;;;;;23.95;6.10;;;4.50;99.90;;;;;;4951032;28;20187;-72
2024/03/25 01:09:07;;;;;;;34.22;7.57;;;4.50;99.90;;;;;;4942572;28;20038;-70
2024/03/25 01:11:33;;;;;;;29.55;8.80;;;4.50;99.90;;;;;;4950303;28;20463;-71
2024/03/25 01:13:59;;;;;;;26.92;8.38;;;4.40;99.90;;;;;;4971136;28;20041;-72
2024/03/25 01:16:27;;;;;;;23.67;9.30;;;4.50;99.90;;;;;;4953570;28;20045;-71
2024/03/25 01:18:53;;;;;;;29.55;8.38;;;4.40;99.90;;;;;;4963606;28;20428;-72
2024/03/25 01:21:19;;;;;;;30.27;8.85;;;4.40;99.90;;;;;;4951660;28;20043;-73
2024/03/25 01:23:45;;;;;;;28.90;8.45;;;4.40;99.90;;;;;;4938826;28;20153;-73
2024/03/25 01:26:12;;;;;;;23.40;8.15;;;4.40;99.90;;;;;;4956737;28;20129;-74
2024/03/25 01:28:38;;;;;;;24.55;7.95;;;4.40;99.90;;;;;;4967114;28;20101;-72
2024/03/25 01:31:04;;;;;;;29.00;9.35;;;4.40;99.90;;;;;;4936605;28;20081;-73
2024/03/25 01:33:30;;;;;;;24.92;8.90;;;4.40;99.90;;;;;;4936749;28;20128;-73
2024/03/25 01:35:56;;;;;;;29.17;8.90;;;4.40;99.90;;;;;;4939360;28;20050;-73
2024/03/25 01:38:23;;;;;;;28.40;8.25;;;4.40;99.90;;;;;;4949794;28;20053;-72
2024/03/25 01:40:49;;;;;;;26.52;8.43;;;4.40;99.90;;;;;;4953474;28;20070;-72
2024/03/25 01:43:16;;;;;;;29.17;8.80;;;4.40;99.90;;;;;;4975647;28;20124;-73
2024/03/25 01:45:42;;;;;;;37.75;9.73;;;4.40;99.90;;;;;;4951057;28;20052;-72
2024/03/25 01:48:10;;;;;;;29.27;8.15;;;4.50;99.90;;;;;;4953122;28;20108;-72
2024/03/25 01:50:41;;;;;;;32.97;9.35;;;4.40;99.90;;;;;;4949671;28;20046;-73
2024/03/25 01:53:08;;;;;;;38.17;10.50;;;4.40;99.90;;;;;;4964795;28;20042;-71
2024/03/25 01:55:36;;;;;;;43.22;10.00;;;4.50;99.90;;;;;;4965348;28;20517;-72
2024/03/25 01:58:04;;;;;;;40.03;10.85;;;4.40;99.90;;;;;;4957003;28;20049;-70
2024/03/25 02:00:31;;;;;;;32.70;8.98;;;4.40;99.90;;;;;;4952621;28;20104;-71
2024/03/25 02:02:58;;;;;;;30.83;9.13;;;4.40;99.90;;;;;;4962265;28;20069;-72
2024/03/25 02:05:24;;;;;;;32.58;12.00;;;4.40;99.90;;;;;;4950346;28;20096;-71
2024/03/25 02:07:52;;;;;;;29.38;9.13;;;4.50;99.90;;;;;;4939327;28;20541;-72
2024/03/25 02:10:18;;;;;;;26.48;8.05;;;4.40;99.90;;;;;;4970085;28;20126;-72
2024/03/25 02:12:45;;;;;;;24.30;6.78;;;4.40;99.90;;;;;;4966139;28;20042;-72
2024/03/25 02:15:15;;;;;;;27.60;6.78;;;4.40;99.90;;;;;;4959769;28;20507;-71
2024/03/25 02:17:41;;;;;;;29.65;8.55;;;4.40;99.90;;;;;;4967157;28;20141;-72
2024/03/25 02:20:08;;;;;;;31.65;9.77;;;4.40;99.90;;;;;;4943317;28;20574;-70
2024/03/25 02:22:37;;;;;;;37.05;8.02;;;4.40;99.90;;;;;;4963199;28;20074;-72
2024/03/25 02:25:08;;;;;;;24.70;8.15;;;4.50;99.90;;;;;;4956578;28;20042;-71
2024/03/25 02:27:35;;;;;;;35.50;8.80;;;4.40;99.90;;;;;;4962829;28;20049;-71
2024/03/25 02:30:13;;;;;;;29.42;7.68;;;4.40;99.90;;;;;;4954943;28;20088;-72
2024/03/25 02:32:40;;;;;;;23.20;6.75;;;4.40;99.90;;;;;;4943559;28;20041;-71
2024/03/25 02:35:10;;;;;;;27.40;11.02;;;4.30;99.90;;;;;;4948092;28;20061;-71
2024/03/25 02:37:37;;;;;;;38.05;9.18;;;4.40;99.90;;;;;;4949222;28;20038;-70
2024/03/25 02:40:07;;;;;;;24.75;8.43;;;4.40;99.90;;;;;;4939257;28;20042;-71
2024/03/25 02:42:33;;;;;;;33.15;8.77;;;4.30;99.90;;;;;;4965584;28;20050;-71
2024/03/25 02:44:59;;;;;;;29.27;7.93;;;4.30;99.90;;;;;;4971452;28;20057;-70
2024/03/25 02:47:27;;;;;;;28.50;9.30;;;4.30;99.90;;;;;;4966171;28;20502;-70
2024/03/25 02:49:53;;;;;;;27.48;8.13;;;4.20;99.90;;;;;;4966499;28;20630;-71
2024/03/25 02:52:20;;;;;;;32.40;9.00;;;4.30;99.90;;;;;;4942304;28;20034;-72
2024/03/25 02:54:46;;;;;;;42.03;10.27;;;4.40;99.90;;;;;;4951074;28;20046;-72
2024/03/25 02:57:12;;;;;;;49.22;10.90;;;4.40;99.90;;;;;;4954678;28;20936;-73
2024/03/25 02:59:39;;;;;;;35.47;10.80;;;4.40;99.90;;;;;;4940444;28;20622;-73
2024/03/25 03:02:05;;;;;;;29.83;9.52;;;4.30;99.90;;;;;;4953085;28;20046;-71
2024/03/25 03:04:31;;;;;;;38.65;10.50;;;4.40;99.90;;;;;;4948643;28;20061;-72
2024/03/25 03:06:58;;;;;;;27.38;9.23;;;4.30;99.90;;;;;;4962242;28;20108;-71
2024/03/25 03:09:24;;;;;;;31.55;10.98;;;4.30;99.90;;;;;;4943582;28;20050;-70
2024/03/25 03:11:51;;;;;;;42.15;9.00;;;4.30;99.90;;;;;;4961356;28;20057;-70
2024/03/25 03:14:17;;;;;;;37.42;10.02;;;4.30;99.90;;;;;;4952374;28;20541;-72
2024/03/25 03:16:43;;;;;;;35.00;10.55;;;4.40;99.90;;;;;;4968758;28;20038;-72
2024/03/25 03:19:09;;;;;;;44.92;13.20;;;4.40;99.90;;;;;;4957828;28;20068;-72
2024/03/25 03:21:36;;;;;;;34.97;10.48;;;4.30;99.90;;;;;;4933852;28;20046;-72
2024/03/25 03:24:03;;;;;;;34.40;11.10;;;4.30;99.90;;;;;;4955162;28;20058;-72
2024/03/25 03:26:29;;;;;;;40.95;11.43;;;4.30;99.90;;;;;;4957071;28;20038;-71
2024/03/25 03:28:56;;;;;;;44.83;11.82;;;4.30;99.90;;;;;;4964055;28;20043;-71
2024/03/25 03:31:22;;;;;;;40.22;12.60;;;4.30;99.90;;;;;;4969533;28;20550;-71
2024/03/25 03:33:49;;;;;;;45.67;10.57;;;4.30;99.90;;;;;;4951874;28;20050;-71
2024/03/25 03:36:17;;;;;;;28.63;9.60;;;4.30;99.90;;;;;;4938333;28;20038;-71
2024/03/25 03:38:43;;;;;;;51.97;14.85;;;4.30;99.90;;;;;;4937997;28;20065;-70
2024/03/25 03:41:10;;;;;;;39.92;10.50;;;4.30;99.90;;;;;;4955648;28;20064;-71
2024/03/25 03:43:37;;;;;;;33.15;11.30;;;4.30;99.90;;;;;;4954737;28;20117;-71
2024/03/25 03:46:03;;;;;;;37.28;9.98;;;4.30;99.90;;;;;;4936540;28;20717;-72
2024/03/25 03:48:30;;;;;;;38.28;12.00;;;4.30;99.90;;;;;;4973950;28;20058;-71
2024/03/25 03:50:57;;;;;;;35.95;10.98;;;4.30;99.90;;;;;;4945571;28;20039;-71
2024/03/25 03:53:23;;;;;;;43.10;11.50;;;4.30;99.90;;;;;;4938810;28;20041;-70
2024/03/25 03:55:58;;;;;;;48.60;11.73;;;4.20;99.90;;;;;;4933976;28;20066;-71
2024/03/25 03:58:24;;;;;;;44.05;10.77;;;4.30;99.90;;;;;;4954757;28;20045;-69
2024/03/25 04:00:55;;;;;;;42.45;12.05;;;4.30;99.90;;;;;;4948310;28;20043;-72
2024/03/25 04:03:21;;;;;;;41.03;11.80;;;4.30;99.90;;;;;;4951901;28;20047;-70
2024/03/25 04:05:47;;;;;;;37.13;11.40;;;4.30;99.90;;;;;;4933091;28;20046;-71
2024/03/25 04:08:13;;;;;;;50.33;13.02;;;4.30;99.90;;;;;;4956613;28;20095;-71
2024/03/25 04:10:40;;;;;;;42.97;11.95;;;4.30;99.90;;;;;;4967092;28;20042;-71
2024/03/25 04:13:11;;;;;;;41.97;12.13;;;4.20;99.90;;;;;;4965426;28;20068;-71
2024/03/25 04:15:42;;;;;;;42.03;13.75;;;4.30;99.90;;;;;;4951802;28;20034;-69
2024/03/25 04:18:08;;;;;;;47.92;13.27;;;4.20;99.90;;;;;;4949362;28;20050;-70
2024/03/25 04:20:39;;;;;;;51.00;13.63;;;4.20;99.90;;;;;;4973425;28;20043;-72
2024/03/25 04:23:09;;;;;;;46.03;13.57;;;4.20;99.90;;;;;;4953035;28;20059;-68
2024/03/25 04:25:38;;;;;;;59.00;13.30;;;4.20;99.90;;;;;;4952415;28;20045;-72
2024/03/25 04:28:08;;;;;;;49.17;14.18;;;4.20;99.90;;;;;;4966884;28;20054;-70
2024/03/25 04:30:34;;;;;;;43.80;13.95;;;4.20;99.90;;;;;;4955506;28;20042;-71
2024/03/25 04:33:01;;;;;;;47.08;11.65;;;4.10;99.90;;;;;;4934840;28;20049;-70
2024/03/25 04:35:28;;;;;;;53.22;13.13;;;4.10;99.90;;;;;;4963421;28;20119;-71
2024/03/25 04:37:56;;;;;;;43.35;11.98;;;4.10;99.90;;;;;;4963350;28;20061;-71
2024/03/25 04:40:23;;;;;;;45.60;12.60;;;4.10;99.90;;;;;;4954407;28;20046;-70
2024/03/25 04:42:49;;;;;;;49.88;13.75;;;4.10;99.90;;;;;;4965400;28;20054;-71
2024/03/25 04:45:15;;;;;;;50.97;13.73;;;4.10;99.90;;;;;;4964832;28;20523;-71
2024/03/25 04:47:41;;;;;;;53.88;12.82;;;4.10;99.90;;;;;;4932671;28;20046;-71
2024/03/25 04:50:09;;;;;;;49.60;16.35;;;4.10;99.90;;;;;;4968064;28;20066;-71
2024/03/25 04:52:35;;;;;;;39.65;12.48;;;4.10;99.90;;;;;;4934050;28;20654;-71
2024/03/25 04:55:01;;;;;;;46.47;13.68;;;4.00;99.90;;;;;;4930250;28;21325;-71
2024/03/25 04:57:27;;;;;;;42.08;14.75;;;4.00;99.90;;;;;;4970915;28;20050;-71
2024/03/25 04:59:54;;;;;;;52.38;16.48;;;4.00;99.90;;;;;;4948703;28;20435;-71
2024/03/25 05:02:20;;;;;;;51.90;14.68;;;4.00;99.90;;;;;;4968707;28;20105;-71
2024/03/25 05:04:46;;;;;;;40.20;13.57;;;4.00;99.90;;;;;;4948140;28;20043;-70
2024/03/25 05:07:12;;;;;;;44.90;14.00;;;4.00;99.90;;;;;;4965516;28;20046;-70
2024/03/25 05:09:38;;;;;;;37.40;13.77;;;4.00;99.90;;;;;;4971851;28;20122;-70
2024/03/25 05:12:05;;;;;;;44.92;13.30;;;4.00;99.90;;;;;;4937586;28;20050;-70
2024/03/25 05:14:31;;;;;;;41.30;13.25;;;4.00;99.90;;;;;;4948451;28;20042;-70
2024/03/25 05:16:57;;;;;;;52.08;14.95;;;4.10;99.90;;;;;;4952002;28;20038;-71
2024/03/25 05:19:23;;;;;;;41.67;16.08;;;4.10;99.90;;;;;;4958453;28;20168;-71
2024/03/25 05:21:50;;;;;;;46.17;16.02;;;4.10;99.90;;;;;;4945667;28;20061;-69
2024/03/25 05:24:16;;;;;;;47.88;14.52;;;4.10;99.90;;;;;;4953404;28;20066;-70
2024/03/25 05:26:42;;;;;;;43.85;14.38;;;4.10;99.90;;;;;;4954442;28;20050;-70
2024/03/25 05:29:08;;;;;;;38.75;13.18;;;4.10;99.90;;;;;;4930447;28;20948;-71
2024/03/25 05:31:35;;;;;;;47.95;15.18;;;4.10;99.90;;;;;;4953206;28;20048;-70
2024/03/25 05:34:08;;;;;;;48.03;14.60;;;4.10;99.90;;;;;;4944826;28;20038;-71
2024/03/25 05:36:34;;;;;;;62.78;15.13;;;4.10;99.90;;;;;;4930580;28;20089;-71
2024/03/25 05:39:02;;;;;;;49.22;17.23;;;4.10;99.90;;;;;;4963335;28;20054;-71
2024/03/25 05:41:28;;;;;;;46.67;14.68;;;4.10;99.90;;;;;;4952461;28;20042;-71
2024/03/25 05:43:54;;;;;;;40.88;14.48;;;4.10;99.90;;;;;;4947857;28;20635;-71
2024/03/25 05:46:20;;;;;;;48.25;16.63;;;4.20;99.90;;;;;;4967770;28;20141;-72
2024/03/25 05:48:47;;;;;;;39.85;14.48;;;4.20;99.90;;;;;;4966106;28;20071;-69
2024/03/25 05:51:14;;;;;;;41.22;13.80;;;4.10;99.90;;;;;;4948217;28;20039;-72
2024/03/25 05:53:40;;;;;;;41.90;14.50;;;4.10;99.90;;;;;;4929731;28;20065;-72
2024/03/25 05:56:07;;;;;;;42.05;16.77;;;4.10;99.90;;;;;;4932251;28;20038;-70
2024/03/25 05:58:34;;;;;;;50.97;15.13;;;4.10;99.90;;;;;;4948936;28;20057;-71
2024/03/25 06:01:01;;;;;;;36.38;13.55;;;4.10;99.90;;;;;;4967425;28;20046;-70
2024/03/25 06:03:27;;;;;;;38.60;14.80;;;4.10;99.90;;;;;;4955514;28;20555;-72
2024/03/25 06:05:53;;;;;;;41.15;13.75;;;4.10;99.90;;;;;;4962177;28;20661;-72
2024/03/25 06:08:25;;;;;;;42.15;12.40;;;4.10;99.90;;;;;;4965203;28;20186;-71
2024/03/25 06:10:51;;;;;;;46.33;13.75;;;4.20;99.90;;;;;;4950396;28;20054;-70
2024/03/25 06:13:18;;;;;;;47.40;15.20;;;4.10;99.90;;;;;;4951073;28;20057;-71
2024/03/25 06:15:44;;;;;;;52.75;14.10;;;4.10;99.90;;;;;;4951223;28;20034;-72
2024/03/25 06:18:10;;;;;;;46.85;14.30;;;4.20;99.90;;;;;;4944449;28;20046;-72
2024/03/25 06:20:36;;;;;;;42.85;12.68;;;4.20;99.90;;;;;;4937162;28;20055;-72
2024/03/25 06:23:03;;;;;;;30.98;12.55;;;4.20;99.90;;;;;;4930837;28;20042;-72
2024/03/25 06:25:30;;;;;;;43.72;12.50;;;4.20;99.90;;;;;;4945979;28;20090;-69
2024/03/25 06:27:57;;;;;;;45.55;12.70;;;4.20;99.90;;;;;;4946487;28;20057;-72
2024/03/25 06:35:53;;;;;;;43.13;12.82;;;4.20;99.90;;;;;;4946257;28;20043;-71
2024/03/25 06:38:20;;;;;;;40.60;13.15;;;4.30;99.90;;;;;;4965686;28;20639;-70
2024/03/25 06:40:47;;;;;;;38.00;13.48;;;4.30;99.90;;;;;;4951334;28;20073;-71
2024/03/25 06:43:16;;;;;;;35.10;14.43;;;4.30;99.90;;;;;;4948162;28;20085;-72
2024/03/25 06:45:42;;;;;;;48.50;14.10;;;4.30;99.90;;;;;;4950397;28;20035;-72
2024/03/25 06:48:08;;;;;;;36.95;12.60;;;4.30;99.90;;;;;;4928273;28;22007;-69
2024/03/25 06:50:34;;;;;;;45.67;15.27;;;4.40;99.90;;;;;;4949742;28;20515;-72
2024/03/25 06:53:00;;;;;;;53.85;16.08;;;4.40;99.90;;;;;;4961015;28;20035;-71
2024/03/25 06:55:28;;;;;;;54.85;16.33;;;4.40;99.90;;;;;;4936927;28;20125;-71
2024/03/25 06:57:54;;;;;;;52.88;17.77;;;4.40;99.90;;;;;;4935671;28;20569;-69
2024/03/25 07:00:22;;;;;;;53.53;20.63;;;4.40;99.90;;;;;;4938527;28;20062;-70
2024/03/25 07:02:49;;;;;;;61.28;20.58;;;4.50;99.90;;;;;;4955085;28;20057;-71
2024/03/25 07:05:15;;;;;;;62.35;18.77;;;4.50;99.90;;;;;;4946679;28;21398;-72
2024/03/25 07:07:41;;;;;;;61.03;19.63;;;4.50;99.90;;;;;;4939575;28;20137;-71
2024/03/25 07:10:07;;;;;;;57.58;21.35;;;4.50;99.90;;;;;;4964819;28;20046;-71
2024/03/25 07:12:34;;;;;;;57.55;19.85;;;4.40;99.90;;;;;;4951136;28;20049;-72
2024/03/25 07:15:00;;;;;;;51.20;19.30;;;4.50;99.90;;;;;;4962763;28;20054;-70
2024/03/25 07:17:27;;;;;;;63.55;22.90;;;4.70;99.90;;;;;;4953953;28;20034;-69
2024/03/25 07:19:53;;;;;;;68.03;23.02;;;4.80;99.90;;;;;;4956860;28;20443;-71
2024/03/25 07:22:19;;;;;;;53.70;22.77;;;4.80;99.90;;;;;;4963922;28;20053;-71
2024/03/25 07:24:45;;;;;;;49.15;21.73;;;4.80;99.90;;;;;;4950900;28;20081;-71
2024/03/25 07:27:12;;;;;;;72.88;24.38;;;4.80;99.90;;;;;;4966282;28;20053;-70
2024/03/25 07:29:38;;;;;;;51.50;21.30;;;4.90;99.90;;;;;;4941540;28;20042;-70
2024/03/25 07:32:05;;;;;;;68.60;23.38;;;4.80;99.90;;;;;;4957557;28;20053;-70
2024/03/25 07:34:31;;;;;;;62.90;24.33;;;4.80;99.90;;;;;;4965950;28;20039;-70
2024/03/25 07:36:57;;;;;;;56.88;25.50;;;4.80;99.90;;;;;;4966112;28;20035;-68
2024/03/25 07:39:27;;;;;;;70.93;26.65;;;4.80;99.90;;;;;;4936322;28;20082;-71
2024/03/25 07:41:53;;;;;;;62.85;25.45;;;4.80;99.90;;;;;;4953154;28;20050;-71
2024/03/25 07:44:19;;;;;;;62.35;25.60;;;5.00;99.90;;;;;;4952488;28;20054;-70
2024/03/25 07:46:46;;;;;;;57.17;25.83;;;5.10;99.90;;;;;;4968834;28;20066;-71
2024/03/25 07:49:12;;;;;;;39.42;21.23;;;5.20;99.90;;;;;;4950454;28;21019;-71
2024/03/25 07:51:39;;;;;;;46.50;24.58;;;5.30;99.90;;;;;;4956970;28;20034;-71
2024/03/25 07:54:05;;;;;;;43.63;24.27;;;5.50;99.90;;;;;;4945112;28;20050;-71
2024/03/25 07:56:37;;;;;;;36.00;25.08;;;5.70;99.90;;;;;;4956429;28;20447;-71
2024/03/25 07:59:03;;;;;;;31.85;27.80;;;5.90;99.90;;;;;;4948863;28;20061;-70
2024/03/25 08:01:30;;;;;;;30.30;27.73;;;6.00;99.90;;;;;;4939869;28;20065;-70
2024/03/25 08:03:56;;;;;;;32.63;28.33;;;6.00;99.90;;;;;;4948251;28;20045;-71
2024/03/25 08:06:22;;;;;;;36.95;28.73;;;6.10;99.90;;;;;;4947599;28;20054;-71
2024/03/25 08:08:48;;;;;;;46.88;28.33;;;6.20;99.90;;;;;;4951445;28;20117;-70
2024/03/25 08:11:14;;;;;;;36.55;27.73;;;6.20;99.90;;;;;;4948057;28;20065;-71
2024/03/25 08:13:40;;;;;;;31.20;27.80;;;6.20;99.90;;;;;;4972453;28;20190;-69
2024/03/25 08:16:06;;;;;;;37.80;27.85;;;6.20;99.90;;;;;;4943132;28;20546;-70
2024/03/25 08:18:33;;;;;;;48.80;30.23;;;6.50;99.90;;;;;;4970914;28;20053;-71
2024/03/25 08:20:59;;;;;;;34.38;27.17;;;6.50;99.90;;;;;;4935988;28;20038;-68
2024/03/25 08:23:26;;;;;;;29.20;26.20;;;6.60;99.90;;;;;;4937520;28;20133;-70
2024/03/25 08:25:52;;;;;;;32.85;25.67;;;6.70;99.90;;;;;;4966922;28;20047;-71
2024/03/25 08:28:18;;;;;;;30.02;24.63;;;6.90;99.90;;;;;;4965329;28;20437;-68
2024/03/25 08:30:45;;;;;;;27.55;24.88;;;7.00;99.90;;;;;;4942994;28;20039;-69
2024/03/25 08:33:11;;;;;;;32.53;29.23;;;7.00;99.90;;;;;;4944784;28;20038;-71
2024/03/25 08:35:38;;;;;;;32.83;29.42;;;7.20;99.90;;;;;;4955509;28;20046;-71
2024/03/25 08:38:06;;;;;;;28.77;26.15;;;7.40;99.90;;;;;;4962515;28;20051;-69
2024/03/25 08:40:32;;;;;;;34.28;27.67;;;7.30;99.90;;;;;;4961218;28;20507;-70
2024/03/25 08:42:59;;;;;;;35.67;32.58;;;7.40;99.90;;;;;;4956909;28;20565;-71
2024/03/25 08:45:25;;;;;;;28.65;26.17;;;7.70;99.90;;;;;;4951102;28;20065;-71
2024/03/25 08:47:51;;;;;;;31.77;29.15;;;7.80;99.90;;;;;;4968823;28;20047;-70
2024/03/25 08:50:18;;;;;;;36.67;33.55;;;7.80;99.90;;;;;;4939496;28;20065;-69
2024/03/25 08:52:43;;;;;;;38.25;34.33;;;7.70;99.90;;;;;;4961220;28;20039;-69
2024/03/25 08:55:11;;;;;;;36.33;33.20;;;7.30;99.90;;;;;;4928597;28;20050;-71
2024/03/25 08:57:37;;;;;;;36.15;32.05;;;7.10;99.90;;;;;;4958707;28;20053;-71
2024/03/25 09:00:04;;;;;;;34.13;30.75;;;6.80;99.90;;;;;;4959014;28;20111;-69
2024/03/25 09:02:30;;;;;;;42.22;33.45;;;6.80;99.90;;;;;;4968463;28;20042;-70
2024/03/25 09:04:57;;;;;;;36.78;32.90;;;6.90;99.90;;;;;;4939607;28;20050;-69
2024/03/25 09:07:24;;;;;;;36.05;32.67;;;6.80;99.90;;;;;;4951638;28;20673;-70
2024/03/25 09:12:38;;;;;;;45.83;33.42;;;6.80;99.90;;;;;;4973462;28;20038;-70
2024/03/25 09:15:05;;;;;;;41.95;37.50;;;6.90;99.90;;;;;;4951536;28;20069;-69
2024/03/25 09:17:31;;;;;;;51.03;36.83;;;6.90;99.90;;;;;;4952627;28;20043;-70
2024/03/25 09:19:57;;;;;;;43.50;39.00;;;6.90;99.90;;;;;;4942141;28;20115;-69
2024/03/25 09:22:24;;;;;;;41.53;37.10;;;7.20;99.90;;;;;;4968665;28;20052;-70
2024/03/25 09:24:50;;;;;;;48.45;37.50;;;7.50;99.90;;;;;;4954069;28;20046;-70
2024/03/25 09:27:16;;;;;;;44.67;37.92;;;7.40;99.90;;;;;;4948586;28;20042;-70
2024/03/25 09:29:42;;;;;;;47.70;35.17;;;7.40;99.90;;;;;;4955702;28;20042;-70
2024/03/25 09:32:08;;;;;;;43.03;35.03;;;7.30;99.90;;;;;;4942501;28;20049;-70
2024/03/25 09:34:34;;;;;;;42.85;33.05;;;7.30;99.90;;;;;;4946344;28;20129;-70
2024/03/25 09:37:01;;;;;;;37.25;32.78;;;7.20;99.90;;;;;;4949810;28;20089;-70
2024/03/25 09:39:27;;;;;;;43.03;33.15;;;6.90;99.90;;;;;;4969675;28;20797;-70
2024/03/25 09:41:57;;;;;;;44.10;33.30;;;6.90;99.90;;;;;;4972035;28;20058;-71
2024/03/25 09:44:25;;;;;;;50.63;32.28;;;6.80;99.90;;;;;;4948877;28;20047;-69
2024/03/25 09:46:52;;;;;;;38.92;28.95;;;6.80;99.90;;;;;;4965023;28;20641;-69
2024/03/25 09:49:20;;;;;;;36.83;31.05;;;6.80;99.90;;;;;;4968853;28;20046;-71
2024/03/25 09:51:46;;;;;;;34.75;31.08;;;6.70;99.90;;;;;;4956096;28;20035;-69
2024/03/25 09:54:12;;;;;;;33.65;29.15;;;6.60;99.90;;;;;;4961313;28;20097;-69
2024/03/25 09:56:40;;;;;;;39.78;31.23;;;6.50;99.90;;;;;;4970659;28;20241;-70
2024/03/25 09:59:07;;;;;;;48.78;32.60;;;6.60;99.90;;;;;;4950604;28;20046;-69
2024/03/25 10:01:33;;;;;;;43.10;33.20;;;6.50;99.90;;;;;;4965478;28;20818;-70
2024/03/25 10:03:59;;;;;;;37.20;31.70;;;6.80;99.90;;;;;;4950727;28;20042;-71
2024/03/25 10:06:27;;;;;;;37.45;31.10;;;6.80;99.90;;;;;;4961963;28;20053;-71
2024/03/25 10:08:57;;;;;;;38.90;31.70;;;6.80;99.90;;;;;;4950680;28;20042;-70
2024/03/25 10:11:28;;;;;;;36.75;33.53;;;6.80;99.90;;;;;;4935421;28;20042;-69
2024/03/25 10:13:54;;;;;;;47.20;35.78;;;7.00;99.90;;;;;;4976170;28;20058;-70
2024/03/25 10:16:22;;;;;;;30.40;27.52;;;7.60;99.90;;;;;;4928614;28;20046;-69
2024/03/25 10:18:48;;;;;;;34.40;28.77;;;8.20;99.90;;;;;;4957793;28;20054;-70
2024/03/25 10:21:14;;;;;;;32.83;29.38;;;8.40;99.90;;;;;;4953833;28;20054;-70
2024/03/25 10:23:42;;;;;;;35.03;31.85;;;8.40;99.90;;;;;;4969261;28;20050;-70
2024/03/25 10:26:08;;;;;;;35.65;29.23;;;8.10;99.90;;;;;;4951943;28;20066;-70
2024/03/25 10:28:35;;;;;;;32.50;29.55;;;7.80;99.90;;;;;;4952811;28;20039;-69
2024/03/25 10:31:05;;;;;;;34.25;30.50;;;7.40;99.90;;;;;;4953517;28;20423;-69
2024/03/25 10:33:31;;;;;;;45.03;35.40;;;7.40;99.90;;;;;;4974547;28;20571;-70
2024/03/25 10:36:01;;;;;;;38.10;32.67;;;7.40;99.90;;;;;;4976267;28;20189;-71
2024/03/25 10:38:28;;;;;;;32.08;28.63;;;7.50;99.90;;;;;;4959615;28;20054;-68
2024/03/25 10:40:56;;;;;;;30.67;26.88;;;7.60;99.90;;;;;;4946626;28;20476;-70
2024/03/25 10:43:27;;;;;;;35.35;32.25;;;7.50;99.90;;;;;;4969161;28;20477;-69
2024/03/25 10:45:58;;;;;;;32.88;29.55;;;7.60;99.90;;;;;;4957982;28;20038;-70
2024/03/25 10:48:40;;;;;;;34.00;29.90;;;7.60;99.90;;;;;;4968311;28;20046;-70
2024/03/25 10:51:09;;;;;;;33.08;30.02;;;7.50;99.90;;;;;;5001596;28;20557;-71
2024/03/25 10:53:37;;;;;;;35.53;32.17;;;7.60;99.90;;;;;;4947450;28;20519;-70
2024/03/25 10:56:05;;;;;;;38.33;34.80;;;7.60;99.90;;;;;;4956666;28;20643;-68
2024/03/25 10:58:32;;;;;;;42.13;37.97;;;7.70;99.90;;;;;;4970582;28;20518;-71
2024/03/25 11:01:00;;;;;;;43.00;38.50;;;7.80;99.90;;;;;;4975338;28;20329;-71
2024/03/25 11:03:28;;;;;;;39.13;35.05;;;7.70;99.90;;;;;;4944714;28;20046;-69
2024/03/25 11:05:54;;;;;;;35.25;32.35;;;7.50;99.90;;;;;;4947654;28;20046;-71
2024/03/25 11:08:29;;;;;;;32.88;30.45;;;7.20;99.90;;;;;;4946632;28;20068;-69
2024/03/25 11:10:55;;;;;;;;;;;7.10;99.90;;;;;;4970114;28;20038;-71
2024/03/25 11:13:21;;;;;;;32.67;29.75;;;7.20;99.90;;;;;;4958489;28;20583;-68
2024/03/25 11:15:49;;;;;;;31.88;28.88;;;7.20;99.90;;;;;;4958620;28;20049;-70
2024/03/25 11:18:17;;;;;;;33.47;30.60;;;7.30;99.90;;;;;;4953960;28;20101;-69
2024/03/25 11:20:46;;;;;;;32.65;30.00;;;7.50;99.90;;;;;;4968862;28;20042;-69
2024/03/25 11:23:13;;;;;;;34.08;31.00;;;7.60;99.90;;;;;;4950559;28;20065;-71
2024/03/25 11:25:41;;;;;;;38.42;34.92;;;7.70;99.90;;;;;;4949532;28;20045;-70
2024/03/25 11:28:09;;;;;;;35.97;32.42;;;8.00;99.90;;;;;;4967167;28;20595;-71
2024/03/25 11:30:37;;;;;;;36.65;33.17;;;8.50;99.90;;;;;;4944691;28;23007;-70
2024/03/25 11:33:04;;;;;;;34.95;32.22;;;8.60;99.90;;;;;;4968720;28;20046;-69
2024/03/25 11:35:37;;;;;;;38.80;35.55;;;8.60;99.90;;;;;;4925634;28;20038;-70
2024/03/25 11:38:03;;;;;;;35.88;32.63;;;8.50;99.90;;;;;;4953509;28;20046;-71
2024/03/25 11:40:30;;;;;;;37.13;33.92;;;8.40;99.90;;;;;;4949055;28;20046;-70
2024/03/25 11:42:56;;;;;;;40.03;36.55;;;8.10;99.90;;;;;;4953980;28;20133;-70
2024/03/25 11:45:23;;;;;;;39.90;36.80;;;8.40;99.90;;;;;;4945912;28;20925;-69
2024/03/25 11:47:49;;;;;;;37.97;35.08;;;8.60;99.90;;;;;;4949002;28;20156;-71
2024/03/25 11:50:18;;;;;;;38.85;35.47;;;8.60;99.90;;;;;;4965189;28;20157;-70
2024/03/25 11:52:45;;;;;;;39.90;36.65;;;8.30;99.90;;;;;;4970635;28;20461;-70
2024/03/25 11:55:16;;;;;;;37.67;34.70;;;8.40;99.90;;;;;;4963731;28;20054;-70
2024/03/25 11:57:43;;;;;;;35.33;32.10;;;8.30;99.90;;;;;;4952729;28;20093;-69
2024/03/25 12:00:14;;;;;;;37.42;33.67;;;8.40;99.90;;;;;;4948677;28;20117;-70
2024/03/25 12:02:44;;;;;;;36.65;33.33;;;8.30;99.90;;;;;;4956907;28;20097;-70
2024/03/25 12:05:13;;;;;;;36.70;33.38;;;8.10;99.90;;;;;;4943550;28;20046;-70
2024/03/25 12:07:39;;;;;;;36.83;33.45;;;8.10;99.90;;;;;;4954358;28;20051;-70
2024/03/25 12:12:53;;;;;;;40.78;37.28;;;8.20;99.90;;;;;;4966569;28;20057;-70
2024/03/25 12:15:22;;;;;;;38.33;35.03;;;8.40;99.90;;;;;;4928754;28;20047;-71
2024/03/25 12:17:48;;;;;;;40.20;36.70;;;8.60;99.90;;;;;;4949309;28;20058;-71
2024/03/25 12:20:16;;;;;;;42.88;39.35;;;8.90;99.90;;;;;;4952905;28;20038;-71
2024/03/25 12:22:44;;;;;;;43.40;39.58;;;9.00;99.90;;;;;;4966702;28;20123;-70
2024/03/25 12:25:10;;;;;;;40.92;37.75;;;9.00;99.90;;;;;;4962171;28;20049;-71
2024/03/25 12:27:38;;;;;;;39.25;36.55;;;9.10;99.90;;;;;;4964095;28;20054;-71
2024/03/25 12:30:09;;;;;;;40.72;37.53;;;9.30;99.90;;;;;;4952451;28;20057;-69
2024/03/25 12:32:41;;;;;;;42.20;38.78;;;9.30;99.90;;;;;;4968287;28;20545;-70
2024/03/25 12:35:11;;;;;;;41.30;37.90;;;9.40;99.90;;;;;;4943498;28;20042;-70
2024/03/25 12:37:41;;;;;;;41.13;37.92;;;9.60;99.90;;;;;;4954050;28;20125;-71
2024/03/25 12:40:10;;;;;;;42.53;38.35;;;9.70;99.90;;;;;;4936100;28;20094;-69
2024/03/25 12:42:38;;;;;;;38.67;35.55;;;9.90;99.90;;;;;;4950993;28;20065;-71
2024/03/25 12:45:06;;;;;;;41.22;37.85;;;10.00;99.90;;;;;;4961759;28;20055;-70
2024/03/25 12:47:32;;;;;;;43.78;40.53;;;10.00;99.90;;;;;;4964466;28;20053;-70